sensor_id;sensor_type;location;lat;lon;timestamp;pressure;altitude;pressure_sealevel;temperature
24740;BMP280;45234;48.148;17.128;2023-02-19T00:02:06;100126.53;;;12.87
24740;BMP280;45234;48.148;17.128;2023-02-19T00:04:32;100132.09;;;12.90
24740;BMP280;45234;48.148;17.128;2023-02-19T00:06:59;100127.94;;;12.96
24740;BMP280;45234;48.148;17.128;2023-02-19T00:09:26;100135.69;;;13.02
24740;BMP280;45234;48.148;17.128;2023-02-19T00:11:53;100126.28;;;13.01
24740;BMP280;45234;48.148;17.128;2023-02-19T00:14:21;100125.84;;;13.05
24740;BMP280;45234;48.148;17.128;2023-02-19T00:16:48;100133.28;;;13.08
24740;BMP280;45234;48.148;17.128;2023-02-19T00:19:17;100122.44;;;13.11
24740;BMP280;45234;48.148;17.128;2023-02-19T00:21:45;100123.41;;;13.16
24740;BMP280;45234;48.148;17.128;2023-02-19T00:24:13;100116.63;;;13.15
24740;BMP280;45234;48.148;17.128;2023-02-19T00:26:41;100120.00;;;13.16
24740;BMP280;45234;48.148;17.128;2023-02-19T00:29:13;100112.81;;;13.18
24740;BMP280;45234;48.148;17.128;2023-02-19T00:31:40;100121.41;;;13.18
24740;BMP280;45234;48.148;17.128;2023-02-19T00:34:09;100120.75;;;13.23
24740;BMP280;45234;48.148;17.128;2023-02-19T00:36:38;100128.38;;;13.24
24740;BMP280;45234;48.148;17.128;2023-02-19T00:39:06;100129.59;;;13.22
24740;BMP280;45234;48.148;17.128;2023-02-19T00:41:34;100120.34;;;13.26
24740;BMP280;45234;48.148;17.128;2023-02-19T00:44:03;100111.72;;;13.32
24740;BMP280;45234;48.148;17.128;2023-02-19T00:46:42;100120.34;;;13.26
24740;BMP280;45234;48.148;17.128;2023-02-19T00:49:15;100121.53;;;13.30
24740;BMP280;45234;48.148;17.128;2023-02-19T00:51:42;100121.13;;;13.33
24740;BMP280;45234;48.148;17.128;2023-02-19T00:54:10;100109.31;;;13.30
24740;BMP280;45234;48.148;17.128;2023-02-19T00:56:37;100118.75;;;13.31
24740;BMP280;45234;48.148;17.128;2023-02-19T00:59:04;100124.34;;;13.35
24740;BMP280;45234;48.148;17.128;2023-02-19T01:01:31;100123.28;;;13.36
24740;BMP280;45234;48.148;17.128;2023-02-19T01:03:58;100117.09;;;13.37
24740;BMP280;45234;48.148;17.128;2023-02-19T01:06:25;100130.09;;;13.37
24740;BMP280;45234;48.148;17.128;2023-02-19T01:08:52;100122.75;;;13.34
24740;BMP280;45234;48.148;17.128;2023-02-19T01:11:20;100121.91;;;13.40
24740;BMP280;45234;48.148;17.128;2023-02-19T01:13:47;100111.31;;;13.35
24740;BMP280;45234;48.148;17.128;2023-02-19T01:16:19;100117.72;;;13.32
24740;BMP280;45234;48.148;17.128;2023-02-19T01:18:47;100119.53;;;13.32
24740;BMP280;45234;48.148;17.128;2023-02-19T01:21:19;100115.34;;;13.31
24740;BMP280;45234;48.148;17.128;2023-02-19T01:23:47;100112.72;;;13.31
24740;BMP280;45234;48.148;17.128;2023-02-19T01:26:17;100122.94;;;13.32
24740;BMP280;45234;48.148;17.128;2023-02-19T01:28:45;100127.94;;;13.34
24740;BMP280;45234;48.148;17.128;2023-02-19T01:31:17;100125.19;;;13.29
24740;BMP280;45234;48.148;17.128;2023-02-19T01:33:49;100110.56;;;13.28
24740;BMP280;45234;48.148;17.128;2023-02-19T01:36:17;100112.94;;;13.29
24740;BMP280;45234;48.148;17.128;2023-02-19T01:38:44;100117.53;;;13.34
24740;BMP280;45234;48.148;17.128;2023-02-19T01:41:14;100115.13;;;13.32
24740;BMP280;45234;48.148;17.128;2023-02-19T01:43:58;100109.94;;;13.26
24740;BMP280;45234;48.148;17.128;2023-02-19T01:46:30;100108.13;;;13.33
24740;BMP280;45234;48.148;17.128;2023-02-19T01:49:43;100104.34;;;13.29
24740;BMP280;45234;48.148;17.128;2023-02-19T01:54:23;100097.13;;;13.31
24740;BMP280;45234;48.148;17.128;2023-02-19T01:56:51;100093.72;;;13.30
24740;BMP280;45234;48.148;17.128;2023-02-19T01:59:19;100093.53;;;13.25
24740;BMP280;45234;48.148;17.128;2023-02-19T02:01:46;100078.56;;;13.21
24740;BMP280;45234;48.148;17.128;2023-02-19T02:04:13;100077.56;;;13.15
24740;BMP280;45234;48.148;17.128;2023-02-19T02:06:52;100078.00;;;13.06
24740;BMP280;45234;48.148;17.128;2023-02-19T02:09:21;100074.81;;;13.03
24740;BMP280;45234;48.148;17.128;2023-02-19T02:12:08;100077.28;;;12.92
24740;BMP280;45234;48.148;17.128;2023-02-19T02:14:38;100075.91;;;12.83
24740;BMP280;45234;48.148;17.128;2023-02-19T02:17:20;100076.97;;;12.69
24740;BMP280;45234;48.148;17.128;2023-02-19T02:22:52;100075.19;;;12.56
24740;BMP280;45234;48.148;17.128;2023-02-19T02:31:24;100065.63;;;12.37
24740;BMP280;45234;48.148;17.128;2023-02-19T02:34:03;100061.44;;;12.36
24740;BMP280;45234;48.148;17.128;2023-02-19T02:36:44;100054.44;;;12.29
24740;BMP280;45234;48.148;17.128;2023-02-19T02:39:16;100058.66;;;12.24
24740;BMP280;45234;48.148;17.128;2023-02-19T02:41:56;100067.88;;;12.13
24740;BMP280;45234;48.148;17.128;2023-02-19T02:44:50;100036.31;;;12.03
24740;BMP280;45234;48.148;17.128;2023-02-19T02:50:16;100027.69;;;11.96
24740;BMP280;45234;48.148;17.128;2023-02-19T02:52:45;100035.09;;;11.92
24740;BMP280;45234;48.148;17.128;2023-02-19T02:55:37;100029.50;;;11.89
24740;BMP280;45234;48.148;17.128;2023-02-19T02:58:07;100016.91;;;11.92
24740;BMP280;45234;48.148;17.128;2023-02-19T03:00:36;100012.91;;;11.96
24740;BMP280;45234;48.148;17.128;2023-02-19T03:03:24;100015.91;;;12.00
24740;BMP280;45234;48.148;17.128;2023-02-19T03:05:57;100012.31;;;12.01
24740;BMP280;45234;48.148;17.128;2023-02-19T03:08:38;100009.13;;;11.99
24740;BMP280;45234;48.148;17.128;2023-02-19T03:11:10;100005.13;;;11.96
24740;BMP280;45234;48.148;17.128;2023-02-19T03:14:10;100004.94;;;11.85
24740;BMP280;45234;48.148;17.128;2023-02-19T03:17:10;100004.34;;;11.83
24740;BMP280;45234;48.148;17.128;2023-02-19T03:20:02;100001.50;;;11.78
24740;BMP280;45234;48.148;17.128;2023-02-19T03:22:35;100007.94;;;11.75
24740;BMP280;45234;48.148;17.128;2023-02-19T03:27:56;100014.50;;;11.64
24740;BMP280;45234;48.148;17.128;2023-02-19T03:30:29;100020.31;;;11.60
24740;BMP280;45234;48.148;17.128;2023-02-19T03:33:04;100012.88;;;11.57
24740;BMP280;45234;48.148;17.128;2023-02-19T03:36:01;100014.50;;;11.51
24740;BMP280;45234;48.148;17.128;2023-02-19T03:38:59;100011.53;;;11.54
24740;BMP280;45234;48.148;17.128;2023-02-19T03:41:36;100019.88;;;11.56
24740;BMP280;45234;48.148;17.128;2023-02-19T03:46:45;100022.53;;;11.70
24740;BMP280;45234;48.148;17.128;2023-02-19T03:49:28;100019.50;;;11.73
24740;BMP280;45234;48.148;17.128;2023-02-19T03:57:48;99992.94;;;11.97
24740;BMP280;45234;48.148;17.128;2023-02-19T04:00:22;99997.97;;;11.92
24740;BMP280;45234;48.148;17.128;2023-02-19T04:05:45;99988.34;;;11.86
24740;BMP280;45234;48.148;17.128;2023-02-19T04:08:17;99997.16;;;11.85
24740;BMP280;45234;48.148;17.128;2023-02-19T04:10:51;99998.72;;;11.86
24740;BMP280;45234;48.148;17.128;2023-02-19T04:13:33;100001.56;;;11.84
24740;BMP280;45234;48.148;17.128;2023-02-19T04:16:05;99985.97;;;11.84
24740;BMP280;45234;48.148;17.128;2023-02-19T04:18:37;99989.56;;;11.90
24740;BMP280;45234;48.148;17.128;2023-02-19T04:21:05;99991.53;;;11.94
24740;BMP280;45234;48.148;17.128;2023-02-19T04:23:37;99985.97;;;11.91
24740;BMP280;45234;48.148;17.128;2023-02-19T04:26:06;99994.56;;;11.91
24740;BMP280;45234;48.148;17.128;2023-02-19T04:28:34;99994.94;;;11.95
24740;BMP280;45234;48.148;17.128;2023-02-19T04:31:01;99991.16;;;11.91
24740;BMP280;45234;48.148;17.128;2023-02-19T04:33:28;99999.75;;;11.91
24740;BMP280;45234;48.148;17.128;2023-02-19T04:35:55;99988.75;;;11.96
24740;BMP280;45234;48.148;17.128;2023-02-19T04:38:21;99994.56;;;11.91
24740;BMP280;45234;48.148;17.128;2023-02-19T04:40:48;100005.31;;;11.95
24740;BMP280;45234;48.148;17.128;2023-02-19T04:43:17;99998.72;;;11.99
24740;BMP280;45234;48.148;17.128;2023-02-19T04:45:44;99990.75;;;12.01
24740;BMP280;45234;48.148;17.128;2023-02-19T04:48:11;99993.75;;;12.04
24740;BMP280;45234;48.148;17.128;2023-02-19T04:50:38;99985.09;;;12.10
24740;BMP280;45234;48.148;17.128;2023-02-19T04:53:06;99989.50;;;12.16
24740;BMP280;45234;48.148;17.128;2023-02-19T04:55:39;99992.31;;;12.21
24740;BMP280;45234;48.148;17.128;2023-02-19T04:58:05;99984.69;;;12.26
24740;BMP280;45234;48.148;17.128;2023-02-19T05:00:32;99988.66;;;12.36
24740;BMP280;45234;48.148;17.128;2023-02-19T05:03:00;99998.25;;;12.42
24740;BMP280;45234;48.148;17.128;2023-02-19T05:05:27;99990.25;;;12.43
24740;BMP280;45234;48.148;17.128;2023-02-19T05:07:54;99987.44;;;12.45
24740;BMP280;45234;48.148;17.128;2023-02-19T05:10:22;99983.84;;;12.46
24740;BMP280;45234;48.148;17.128;2023-02-19T05:12:48;99985.44;;;12.47
24740;BMP280;45234;48.148;17.128;2023-02-19T05:15:15;99979.25;;;12.48
24740;BMP280;45234;48.148;17.128;2023-02-19T05:17:42;99971.00;;;12.51
24740;BMP280;45234;48.148;17.128;2023-02-19T05:20:09;99971.81;;;12.51
24740;BMP280;45234;48.148;17.128;2023-02-19T05:22:36;99967.22;;;12.53
24740;BMP280;45234;48.148;17.128;2023-02-19T05:25:03;99968.03;;;12.54
24740;BMP280;45234;48.148;17.128;2023-02-19T05:27:30;99979.00;;;12.56
24740;BMP280;45234;48.148;17.128;2023-02-19T05:29:57;99964.19;;;12.56
24740;BMP280;45234;48.148;17.128;2023-02-19T05:32:24;99979.59;;;12.58
24740;BMP280;45234;48.148;17.128;2023-02-19T05:34:51;99965.56;;;12.59
24740;BMP280;45234;48.148;17.128;2023-02-19T05:37:17;99962.38;;;12.57
24740;BMP280;45234;48.148;17.128;2023-02-19T05:39:44;99962.38;;;12.57
24740;BMP280;45234;48.148;17.128;2023-02-19T05:42:13;99967.59;;;12.57
24740;BMP280;45234;48.148;17.128;2023-02-19T05:44:41;99963.97;;;12.58
24740;BMP280;45234;48.148;17.128;2023-02-19T05:47:08;99961.38;;;12.58
24740;BMP280;45234;48.148;17.128;2023-02-19T05:49:35;99962.78;;;12.60
24740;BMP280;45234;48.148;17.128;2023-02-19T05:52:02;99969.34;;;12.63
24740;BMP280;45234;48.148;17.128;2023-02-19T05:54:30;99965.56;;;12.59
24740;BMP280;45234;48.148;17.128;2023-02-19T05:56:57;99970.00;;;12.52
24740;BMP280;45234;48.148;17.128;2023-02-19T05:59:26;99971.00;;;12.51
24740;BMP280;45234;48.148;17.128;2023-02-19T06:01:53;99978.22;;;12.49
24740;BMP280;45234;48.148;17.128;2023-02-19T06:04:20;99981.84;;;12.48
24740;BMP280;45234;48.148;17.128;2023-02-19T06:06:48;99982.25;;;12.45
24740;BMP280;45234;48.148;17.128;2023-02-19T06:09:15;99977.44;;;12.42
24740;BMP280;45234;48.148;17.128;2023-02-19T06:11:42;99981.03;;;12.41
24740;BMP280;45234;48.148;17.128;2023-02-19T06:14:11;99980.28;;;12.34
24740;BMP280;45234;48.148;17.128;2023-02-19T06:16:39;99976.69;;;12.35
24740;BMP280;45234;48.148;17.128;2023-02-19T06:19:06;99961.47;;;12.31
24740;BMP280;45234;48.148;17.128;2023-02-19T06:21:33;99968.28;;;12.32
24740;BMP280;45234;48.148;17.128;2023-02-19T06:24:07;99960.50;;;12.26
24740;BMP280;45234;48.148;17.128;2023-02-19T06:26:34;99962.31;;;12.25
24740;BMP280;45234;48.148;17.128;2023-02-19T06:29:01;99969.09;;;12.26
24740;BMP280;45234;48.148;17.128;2023-02-19T06:31:28;99968.50;;;12.24
24740;BMP280;45234;48.148;17.128;2023-02-19T06:33:55;99962.72;;;12.22
24740;BMP280;45234;48.148;17.128;2023-02-19T06:36:22;99965.13;;;12.17
24740;BMP280;45234;48.148;17.128;2023-02-19T06:38:50;99982.31;;;12.18
24740;BMP280;45234;48.148;17.128;2023-02-19T06:41:17;99973.31;;;12.14
24740;BMP280;45234;48.148;17.128;2023-02-19T06:43:44;99960.75;;;12.11
24740;BMP280;45234;48.148;17.128;2023-02-19T06:46:13;99958.53;;;12.08
24740;BMP280;45234;48.148;17.128;2023-02-19T06:48:41;99974.31;;;12.07
24740;BMP280;45234;48.148;17.128;2023-02-19T06:51:13;99974.75;;;12.04
24740;BMP280;45234;48.148;17.128;2023-02-19T06:53:39;99975.13;;;12.07
24740;BMP280;45234;48.148;17.128;2023-02-19T06:58:58;99973.75;;;11.98
24740;BMP280;45234;48.148;17.128;2023-02-19T07:01:30;99972.75;;;11.99
24740;BMP280;45234;48.148;17.128;2023-02-19T07:03:57;99977.94;;;11.99
24740;BMP280;45234;48.148;17.128;2023-02-19T07:06:24;99976.34;;;11.98
24740;BMP280;45234;48.148;17.128;2023-02-19T07:08:53;99976.75;;;11.95
24740;BMP280;45234;48.148;17.128;2023-02-19T07:11:20;99976.75;;;11.95
24740;BMP280;45234;48.148;17.128;2023-02-19T07:13:47;99976.34;;;11.98
24740;BMP280;45234;48.148;17.128;2023-02-19T07:16:19;99977.16;;;11.98
24740;BMP280;45234;48.148;17.128;2023-02-19T07:18:46;99971.75;;;12.00
24740;BMP280;45234;48.148;17.128;2023-02-19T07:21:14;99974.16;;;11.95
24740;BMP280;45234;48.148;17.128;2023-02-19T07:23:41;99969.56;;;11.97
24740;BMP280;45234;48.148;17.128;2023-02-19T07:26:14;99979.94;;;11.97
24740;BMP280;45234;48.148;17.128;2023-02-19T07:28:42;99979.53;;;12.00
24740;BMP280;45234;48.148;17.128;2023-02-19T07:31:10;99981.34;;;12.06
24740;BMP280;45234;48.148;17.128;2023-02-19T07:33:37;99980.31;;;12.14
24740;BMP280;45234;48.148;17.128;2023-02-19T07:36:06;99975.31;;;12.19
24740;BMP280;45234;48.148;17.128;2023-02-19T07:38:33;99976.31;;;12.24
24740;BMP280;45234;48.148;17.128;2023-02-19T07:41:02;99980.06;;;12.28
24740;BMP280;45234;48.148;17.128;2023-02-19T07:43:31;99984.06;;;12.38
24740;BMP280;45234;48.148;17.128;2023-02-19T07:46:05;99977.25;;;12.37
24740;BMP280;45234;48.148;17.128;2023-02-19T07:48:34;99974.25;;;12.40
24740;BMP280;45234;48.148;17.128;2023-02-19T07:51:01;99979.59;;;12.51
24740;BMP280;45234;48.148;17.128;2023-02-19T07:53:28;99977.38;;;12.61
24740;BMP280;45234;48.148;17.128;2023-02-19T07:56:00;99980.09;;;12.73
24740;BMP280;45234;48.148;17.128;2023-02-19T07:58:28;99968.19;;;12.97
24740;BMP280;45234;48.148;17.128;2023-02-19T08:00:55;99964.06;;;13.14
24740;BMP280;45234;48.148;17.128;2023-02-19T08:03:22;99960.75;;;13.32
24740;BMP280;45234;48.148;17.128;2023-02-19T08:05:49;99962.03;;;13.48
24740;BMP280;45234;48.148;17.128;2023-02-19T08:08:16;99968.69;;;13.62
24740;BMP280;45234;48.148;17.128;2023-02-19T08:10:43;99957.81;;;13.71
24740;BMP280;45234;48.148;17.128;2023-02-19T08:13:30;99960.50;;;13.83
24740;BMP280;45234;48.148;17.128;2023-02-19T08:16:08;99969.47;;;14.05
24740;BMP280;45234;48.148;17.128;2023-02-19T08:18:47;99974.06;;;14.28
24740;BMP280;45234;48.148;17.128;2023-02-19T08:21:14;99988.38;;;14.37
24740;BMP280;45234;48.148;17.128;2023-02-19T08:23:43;99995.97;;;14.39
24740;BMP280;45234;48.148;17.128;2023-02-19T08:26:11;99990.81;;;14.32
24740;BMP280;45234;48.148;17.128;2023-02-19T08:28:38;100000.56;;;14.25
24740;BMP280;45234;48.148;17.128;2023-02-19T08:31:06;100010.69;;;14.15
24740;BMP280;45234;48.148;17.128;2023-02-19T08:33:34;99998.66;;;14.14
24740;BMP280;45234;48.148;17.128;2023-02-19T08:36:03;99998.47;;;14.16
24740;BMP280;45234;48.148;17.128;2023-02-19T08:38:31;100004.16;;;14.24
24740;BMP280;45234;48.148;17.128;2023-02-19T08:40:58;100005.41;;;14.40
24740;BMP280;45234;48.148;17.128;2023-02-19T08:43:24;100001.25;;;14.51
24740;BMP280;45234;48.148;17.128;2023-02-19T08:45:52;99996.97;;;14.56
24740;BMP280;45234;48.148;17.128;2023-02-19T08:48:20;99998.03;;;14.67
24740;BMP280;45234;48.148;17.128;2023-02-19T08:50:58;99996.44;;;14.66
24740;BMP280;45234;48.148;17.128;2023-02-19T08:53:26;100009.44;;;14.84
24740;BMP280;45234;48.148;17.128;2023-02-19T08:55:53;100011.81;;;14.86
24740;BMP280;45234;48.148;17.128;2023-02-19T08:58:19;100015.91;;;14.82
24740;BMP280;45234;48.148;17.128;2023-02-19T09:00:46;100019.56;;;14.62
24740;BMP280;45234;48.148;17.128;2023-02-19T09:03:14;100012.69;;;14.50
24740;BMP280;45234;48.148;17.128;2023-02-19T09:05:41;100005.81;;;14.55
24740;BMP280;45234;48.148;17.128;2023-02-19T09:08:08;100011.19;;;14.72
24740;BMP280;45234;48.148;17.128;2023-02-19T09:10:35;100013.06;;;14.83
24740;BMP280;45234;48.148;17.128;2023-02-19T09:13:02;100007.03;;;15.12
24740;BMP280;45234;48.148;17.128;2023-02-19T09:15:28;100009.13;;;15.34
24740;BMP280;45234;48.148;17.128;2023-02-19T09:17:55;100008.66;;;15.37
24740;BMP280;45234;48.148;17.128;2023-02-19T09:20:22;100010.31;;;15.61
24740;BMP280;45234;48.148;17.128;2023-02-19T09:22:49;100003.56;;;15.77
24740;BMP280;45234;48.148;17.128;2023-02-19T09:25:21;100009.72;;;15.71
24740;BMP280;45234;48.148;17.128;2023-02-19T09:27:48;99999.38;;;15.76
24740;BMP280;45234;48.148;17.128;2023-02-19T09:30:15;99990.63;;;15.94
24740;BMP280;45234;48.148;17.128;2023-02-19T09:32:42;99994.75;;;16.18
24740;BMP280;45234;48.148;17.128;2023-02-19T09:35:08;99994.75;;;16.18
24740;BMP280;45234;48.148;17.128;2023-02-19T09:37:35;99985.44;;;16.22
24740;BMP280;45234;48.148;17.128;2023-02-19T09:40:02;99985.81;;;16.42
24740;BMP280;45234;48.148;17.128;2023-02-19T09:42:30;99981.81;;;16.40
24740;BMP280;45234;48.148;17.128;2023-02-19T09:44:59;99978.16;;;16.24
24740;BMP280;45234;48.148;17.128;2023-02-19T09:47:31;99959.84;;;16.12
24740;BMP280;45234;48.148;17.128;2023-02-19T09:50:08;99947.78;;;15.95
24740;BMP280;45234;48.148;17.128;2023-02-19T09:52:46;99969.25;;;15.85
24740;BMP280;45234;48.148;17.128;2023-02-19T09:55:33;99949.81;;;15.69
24740;BMP280;45234;48.148;17.128;2023-02-19T09:58:16;99953.94;;;15.65
24740;BMP280;45234;48.148;17.128;2023-02-19T10:00:48;99958.03;;;15.61
24740;BMP280;45234;48.148;17.128;2023-02-19T10:03:26;99958.38;;;15.53
24740;BMP280;45234;48.148;17.128;2023-02-19T10:06:06;99949.38;;;15.49
24740;BMP280;45234;48.148;17.128;2023-02-19T10:08:39;99940.56;;;15.50
24740;BMP280;45234;48.148;17.128;2023-02-19T10:11:11;99945.56;;;15.40
24740;BMP280;45234;48.148;17.128;2023-02-19T10:13:56;99934.28;;;15.28
24740;BMP280;45234;48.148;17.128;2023-02-19T10:16:27;99923.63;;;15.41
24740;BMP280;45234;48.148;17.128;2023-02-19T10:18:54;99922.59;;;15.42
24740;BMP280;45234;48.148;17.128;2023-02-19T10:21:26;99928.50;;;15.49
24740;BMP280;45234;48.148;17.128;2023-02-19T10:23:58;99924.09;;;15.61
24740;BMP280;45234;48.148;17.128;2023-02-19T10:26:26;99914.75;;;15.42
24740;BMP280;45234;48.148;17.128;2023-02-19T10:29:00;99933.69;;;15.84
24740;BMP280;45234;48.148;17.128;2023-02-19T10:31:31;99925.16;;;15.88
24740;BMP280;45234;48.148;17.128;2023-02-19T10:34:00;99911.59;;;15.92
24740;BMP280;45234;48.148;17.128;2023-02-19T10:36:39;99921.63;;;15.95
24740;BMP280;45234;48.148;17.128;2023-02-19T10:41:53;99926.03;;;16.06
24740;BMP280;45234;48.148;17.128;2023-02-19T10:44:28;99919.09;;;16.00
24740;BMP280;45234;48.148;17.128;2023-02-19T10:46:58;99911.38;;;16.05
24740;BMP280;45234;48.148;17.128;2023-02-19T10:52:23;99910.66;;;16.38
24740;BMP280;45234;48.148;17.128;2023-02-19T10:54:54;99896.44;;;16.34
24740;BMP280;45234;48.148;17.128;2023-02-19T10:57:29;99909.47;;;16.45
24740;BMP280;45234;48.148;17.128;2023-02-19T10:59:59;99914.91;;;16.44
24740;BMP280;45234;48.148;17.128;2023-02-19T11:02:30;99894.97;;;16.38
24740;BMP280;45234;48.148;17.128;2023-02-19T11:05:18;99896.16;;;16.18
24740;BMP280;45234;48.148;17.128;2023-02-19T11:07:53;99897.88;;;16.24
24740;BMP280;45234;48.148;17.128;2023-02-19T11:10:35;99906.19;;;16.38
24740;BMP280;45234;48.148;17.128;2023-02-19T11:13:05;99910.75;;;16.59
24740;BMP280;45234;48.148;17.128;2023-02-19T11:15:38;99912.56;;;16.76
24740;BMP280;45234;48.148;17.128;2023-02-19T11:23:17;99900.03;;;17.11
24740;BMP280;45234;48.148;17.128;2023-02-19T11:25:49;99906.22;;;17.22
24740;BMP280;45234;48.148;17.128;2023-02-19T11:28:36;99899.84;;;17.34
24740;BMP280;45234;48.148;17.128;2023-02-19T11:33:57;99893.66;;;17.62
24740;BMP280;45234;48.148;17.128;2023-02-19T11:36:35;99903.53;;;17.60
24740;BMP280;45234;48.148;17.128;2023-02-19T11:58:50;99903.78;;;17.37
24740;BMP280;45234;48.148;17.128;2023-02-19T12:12:15;99893.78;;;17.12
24740;BMP280;45234;48.148;17.128;2023-02-19T12:20:33;99914.44;;;17.30
24740;BMP280;45234;48.148;17.128;2023-02-19T12:25:57;99914.97;;;16.94
24740;BMP280;45234;48.148;17.128;2023-02-19T12:31:22;99943.94;;;16.42
24740;BMP280;45234;48.148;17.128;2023-02-19T12:39:45;99957.50;;;15.99
24740;BMP280;45234;48.148;17.128;2023-02-19T12:45:18;99967.50;;;15.91
24740;BMP280;45234;48.148;17.128;2023-02-19T12:47:55;99958.81;;;15.73
24740;BMP280;45234;48.148;17.128;2023-02-19T12:50:25;99971.88;;;15.73
24740;BMP280;45234;48.148;17.128;2023-02-19T12:53:09;99954.72;;;15.66
24740;BMP280;45234;48.148;17.128;2023-02-19T12:55:42;99955.25;;;15.79
24740;BMP280;45234;48.148;17.128;2023-02-19T12:58:15;99956.25;;;15.90
24740;BMP280;45234;48.148;17.128;2023-02-19T13:00:49;99944.25;;;15.89
24740;BMP280;45234;48.148;17.128;2023-02-19T13:03:38;99940.50;;;15.73
24740;BMP280;45234;48.148;17.128;2023-02-19T13:09:05;99931.34;;;15.71
24740;BMP280;45234;48.148;17.128;2023-02-19T13:11:46;99956.88;;;15.57
24740;BMP280;45234;48.148;17.128;2023-02-19T13:17:50;99966.47;;;15.40
24740;BMP280;45234;48.148;17.128;2023-02-19T13:20:34;99960.75;;;15.43
24740;BMP280;45234;48.148;17.128;2023-02-19T13:23:10;99959.25;;;15.47
24740;BMP280;45234;48.148;17.128;2023-02-19T13:36:51;99932.34;;;14.88
24740;BMP280;45234;48.148;17.128;2023-02-19T13:39:19;99926.84;;;14.78
24740;BMP280;45234;48.148;17.128;2023-02-19T13:41:58;99936.59;;;14.71
24740;BMP280;45234;48.148;17.128;2023-02-19T13:44:28;99946.19;;;14.59
24740;BMP280;45234;48.148;17.128;2023-02-19T13:46:55;99948.25;;;14.38
24740;BMP280;45234;48.148;17.128;2023-02-19T13:54:41;99947.97;;;14.28
24740;BMP280;45234;48.148;17.128;2023-02-19T13:57:19;99950.59;;;14.28
24740;BMP280;45234;48.148;17.128;2023-02-19T13:59:57;99960.28;;;14.39
24740;BMP280;45234;48.148;17.128;2023-02-19T14:02:32;99960.91;;;14.23
24740;BMP280;45234;48.148;17.128;2023-02-19T14:05:09;99967.81;;;14.11
24740;BMP280;45234;48.148;17.128;2023-02-19T14:13:15;100010.09;;;13.45
24740;BMP280;45234;48.148;17.128;2023-02-19T14:15:58;100017.56;;;13.03
24740;BMP280;45234;48.148;17.128;2023-02-19T14:18:45;100034.34;;;12.63
24740;BMP280;45234;48.148;17.128;2023-02-19T14:21:37;100047.88;;;12.34
24740;BMP280;45234;48.148;17.128;2023-02-19T14:24:10;100039.06;;;12.08
24740;BMP280;45234;48.148;17.128;2023-02-19T14:26:37;100033.50;;;11.85
24740;BMP280;45234;48.148;17.128;2023-02-19T14:29:07;100017.72;;;11.80
24740;BMP280;45234;48.148;17.128;2023-02-19T14:31:36;100035.09;;;11.86
24740;BMP280;45234;48.148;17.128;2023-02-19T14:34:18;100042.69;;;11.81
24740;BMP280;45234;48.148;17.128;2023-02-19T14:36:52;100049.88;;;11.79
24740;BMP280;45234;48.148;17.128;2023-02-19T14:39:28;100050.28;;;11.69
24740;BMP280;45234;48.148;17.128;2023-02-19T14:42:15;100059.88;;;11.69
24740;BMP280;45234;48.148;17.128;2023-02-19T14:44:46;100064.44;;;11.67
24740;BMP280;45234;48.148;17.128;2023-02-19T14:47:17;100059.25;;;11.53
24740;BMP280;45234;48.148;17.128;2023-02-19T14:49:53;100063.16;;;11.36
24740;BMP280;45234;48.148;17.128;2023-02-19T14:52:36;100057.38;;;11.27
24740;BMP280;45234;48.148;17.128;2023-02-19T14:55:29;100066.75;;;11.22
24740;BMP280;45234;48.148;17.128;2023-02-19T14:57:59;100051.56;;;11.19
24740;BMP280;45234;48.148;17.128;2023-02-19T15:00:34;100058.19;;;11.28
24740;BMP280;45234;48.148;17.128;2023-02-19T15:03:03;100053.00;;;11.41
24740;BMP280;45234;48.148;17.128;2023-02-19T15:08:47;100067.03;;;11.53
24740;BMP280;45234;48.148;17.128;2023-02-19T15:11:19;100063.03;;;11.57
24740;BMP280;45234;48.148;17.128;2023-02-19T15:13:51;100066.22;;;11.66
24740;BMP280;45234;48.148;17.128;2023-02-19T15:16:21;100058.19;;;11.41
24740;BMP280;45234;48.148;17.128;2023-02-19T15:18:53;100072.84;;;11.69
24740;BMP280;45234;48.148;17.128;2023-02-19T15:21:29;100063.06;;;11.71
24740;BMP280;45234;48.148;17.128;2023-02-19T15:24:00;100060.69;;;11.69
24740;BMP280;45234;48.148;17.128;2023-02-19T15:29:16;100074.47;;;11.70
24740;BMP280;45234;48.148;17.128;2023-02-19T15:31:49;100077.25;;;11.75
24740;BMP280;45234;48.148;17.128;2023-02-19T15:34:28;100070.25;;;11.69
24740;BMP280;45234;48.148;17.128;2023-02-19T15:39:29;100078.06;;;11.82
24740;BMP280;45234;48.148;17.128;2023-02-19T15:42:01;100073.66;;;11.76
24740;BMP280;45234;48.148;17.128;2023-02-19T15:47:11;100099.00;;;11.87
24740;BMP280;45234;48.148;17.128;2023-02-19T15:49:50;100161.78;;;12.10
24740;BMP280;45234;48.148;17.128;2023-02-19T15:52:33;100172.34;;;11.89
24740;BMP280;45234;48.148;17.128;2023-02-19T16:00:35;100154.03;;;10.67
24740;BMP280;45234;48.148;17.128;2023-02-19T16:03:05;100171.19;;;10.47
24740;BMP280;45234;48.148;17.128;2023-02-19T16:05:33;100189.72;;;10.22
24740;BMP280;45234;48.148;17.128;2023-02-19T16:10:38;100191.97;;;9.89
24740;BMP280;45234;48.148;17.128;2023-02-19T16:13:05;100220.81;;;9.72
24740;BMP280;45234;48.148;17.128;2023-02-19T16:15:34;100215.13;;;9.61
24740;BMP280;45234;48.148;17.128;2023-02-19T16:18:01;100214.50;;;9.45
24740;BMP280;45234;48.148;17.128;2023-02-19T16:20:33;100192.84;;;9.31
24740;BMP280;45234;48.148;17.128;2023-02-19T16:23:13;100221.88;;;9.04
24740;BMP280;45234;48.148;17.128;2023-02-19T16:25:43;100221.94;;;8.95
24740;BMP280;45234;48.148;17.128;2023-02-19T16:28:21;100229.81;;;8.79
24740;BMP280;45234;48.148;17.128;2023-02-19T16:30:59;100230.16;;;8.76
24740;BMP280;45234;48.148;17.128;2023-02-19T16:47:37;100219.66;;;8.78
24740;BMP280;45234;48.148;17.128;2023-02-19T16:49:45;100207.72;;;8.77
24740;BMP280;45234;48.148;17.128;2023-02-19T16:52:14;100221.09;;;8.80
24740;BMP280;45234;48.148;17.128;2023-02-19T16:54:41;100235.06;;;8.71